Time;durP1;ratioP1;P1;durP2;ratioP2;P2;SDS_P1;SDS_P2;PMS_P1;PMS_P2;Temp;Humidity;BMP_temperature;BMP_pressure;BME280_temperature;BME280_humidity;BME280_pressure;Samples;Min_cycle;Max_cycle;Signal;HPM_P1;HPM_P2
2022/07/12 00:00:41;;;;;;;1.00;0.90;;;;;;;14.56;69.30;98842.39;1697405;84;20924;-66
2022/07/12 00:03:10;;;;;;;1.80;1.12;;;;;;;14.55;69.37;98854.95;1694646;83;20913;-66
2022/07/12 00:05:37;;;;;;;1.40;0.90;;;;;;;14.56;69.33;98844.56;1697741;84;21504;-66
2022/07/12 00:08:06;;;;;;;1.30;0.80;;;;;;;14.56;69.35;98849.91;1692773;84;21395;-66
2022/07/12 00:10:32;;;;;;;0.98;0.82;;;;;;;14.57;69.47;98842.70;1698544;84;21034;-66
2022/07/12 00:12:59;;;;;;;1.20;1.10;;;;;;;14.60;69.50;98844.42;1697463;84;21063;-65
2022/07/12 00:15:26;;;;;;;1.12;1.00;;;;;;;14.63;69.36;98833.81;1701326;84;21261;-66
2022/07/12 00:17:52;;;;;;;1.45;1.00;;;;;;;14.62;69.32;98838.88;1699247;83;21059;-66
2022/07/12 00:20:19;;;;;;;2.52;1.20;;;;;;;14.63;69.34;98835.16;1703049;83;21469;-66
2022/07/12 00:22:46;;;;;;;2.30;1.05;;;;;;;14.64;69.21;98828.27;1687633;84;21041;-66
2022/07/12 00:25:13;;;;;;;1.32;1.20;;;;;;;14.62;69.33;98833.02;1692728;84;20927;-66
2022/07/12 00:27:40;;;;;;;1.77;1.20;;;;;;;14.60;69.40;98831.05;1686427;84;21321;-66
2022/07/12 00:30:09;;;;;;;5.03;1.20;;;;;;;14.58;69.58;98831.78;1696834;84;20947;-66
2022/07/12 00:32:36;;;;;;;2.80;1.10;;;;;;;14.58;69.71;98840.31;1693621;84;21037;-66
2022/07/12 00:35:05;;;;;;;1.40;1.30;;;;;;;14.59;69.69;98829.42;1696756;84;20976;-66
2022/07/12 00:37:33;;;;;;;1.67;1.22;;;;;;;14.59;69.66;98828.59;1699290;83;21468;-65
2022/07/12 00:39:59;;;;;;;1.55;1.37;;;;;;;14.57;69.68;98830.66;1697790;84;21242;-65
2022/07/12 00:42:26;;;;;;;1.20;1.10;;;;;;;14.54;69.86;98831.08;1692008;82;21653;-65
2022/07/12 00:44:53;;;;;;;1.10;1.00;;;;;;;14.54;69.97;98836.44;1695793;84;21038;-65
2022/07/12 00:47:40;;;;;;;2.80;1.07;;;;;;;14.52;70.00;98823.24;1698918;84;20916;-66
2022/07/12 00:50:14;;;;;;;1.17;1.10;;;;;;;14.49;70.13;98823.69;1689512;84;21078;-66
2022/07/12 00:52:44;;;;;;;1.45;1.10;;;;;;;14.48;70.25;98823.38;1679414;84;21602;-65
2022/07/12 00:55:12;;;;;;;1.10;1.10;;;;;;;14.46;70.27;98826.78;1694255;84;20948;-66
2022/07/12 00:57:40;;;;;;;1.77;1.20;;;;;;;14.42;70.33;98824.20;1696115;84;20995;-66
2022/07/12 01:00:09;;;;;;;1.95;1.40;;;;;;;14.38;70.46;98825.67;1692007;84;20983;-67
2022/07/12 01:02:36;;;;;;;1.90;1.12;;;;;;;14.36;70.53;98828.25;1694963;84;20979;-66
2022/07/12 01:05:06;;;;;;;1.37;1.10;;;;;;;14.32;70.70;98825.16;1692088;83;21283;-66
2022/07/12 01:07:35;;;;;;;1.12;1.02;;;;;;;14.31;70.77;98822.20;1695033;84;20948;-66
2022/07/12 01:10:02;;;;;;;1.95;1.22;;;;;;;14.32;70.96;98830.52;1693192;84;20998;-67
2022/07/12 01:12:29;;;;;;;1.82;1.32;;;;;;;14.31;71.11;98823.55;1689685;84;20912;-66
2022/07/12 01:14:55;;;;;;;1.00;1.00;;;;;;;14.30;71.14;98822.36;1698101;84;20955;-66
2022/07/12 01:17:24;;;;;;;1.55;0.98;;;;;;;14.27;71.17;98818.25;1696828;84;21144;-66
2022/07/12 01:19:53;;;;;;;1.05;0.95;;;;;;;14.25;71.32;98813.64;1698686;84;21658;-66
2022/07/12 01:22:20;;;;;;;2.02;1.10;;;;;;;14.27;71.35;98813.41;1688902;84;21514;-66
2022/07/12 01:24:47;;;;;;;1.02;0.90;;;;;;;14.24;71.45;98803.95;1699777;84;21517;-66
2022/07/12 01:27:13;;;;;;;0.95;0.95;;;;;;;14.26;71.60;98805.10;1694264;84;21553;-66
2022/07/12 01:29:39;;;;;;;2.83;1.20;;;;;;;14.28;71.63;98796.34;1694294;84;22070;-66
2022/07/12 01:32:25;;;;;;;1.80;1.17;;;;;;;14.32;71.67;98799.75;1690490;84;21577;-66
2022/07/12 01:34:55;;;;;;;1.10;1.00;;;;;;;14.34;71.57;98799.55;1691505;84;21588;-66
2022/07/12 01:37:23;;;;;;;1.50;1.00;;;;;;;14.34;71.56;98798.22;1696306;84;20956;-66
2022/07/12 01:39:53;;;;;;;1.55;1.32;;;;;;;14.33;71.61;98789.36;1697605;84;21093;-67
2022/07/12 01:42:24;;;;;;;2.30;1.20;;;;;;;14.33;71.70;98789.36;1689358;84;21140;-66
2022/07/12 01:44:52;;;;;;;2.52;1.17;;;;;;;14.33;71.78;98786.69;1695043;84;21257;-66
2022/07/12 01:47:20;;;;;;;1.85;1.07;;;;;;;14.32;71.78;98780.19;1695536;83;21522;-67
2022/07/12 01:49:47;;;;;;;1.45;0.93;;;;;;;14.30;71.86;98779.05;1694653;84;21044;-66
2022/07/12 01:52:14;;;;;;;1.10;1.00;;;;;;;14.28;71.97;98784.30;1687242;84;20931;-66
2022/07/12 01:54:41;;;;;;;0.80;0.80;;;;;;;14.25;72.10;98786.88;1678465;85;21268;-66
2022/07/12 01:57:07;;;;;;;1.55;0.98;;;;;;;14.22;72.22;98788.13;1696472;84;21485;-66
2022/07/12 01:59:34;;;;;;;2.87;1.00;;;;;;;14.19;72.31;98791.22;1695388;84;21457;-66
2022/07/12 02:02:01;;;;;;;1.50;0.80;;;;;;;14.16;72.48;98791.63;1690720;83;21596;-67
2022/07/12 02:04:28;;;;;;;5.60;1.67;;;;;;;14.17;72.56;98793.28;1690831;84;20987;-66
2022/07/12 02:06:55;;;;;;;1.52;1.25;;;;;;;14.15;72.65;98792.68;1694614;84;21252;-66
2022/07/12 02:09:22;;;;;;;1.42;0.90;;;;;;;14.14;72.74;98785.67;1696701;84;21066;-66
2022/07/12 02:11:49;;;;;;;0.78;0.78;;;;;;;14.14;72.85;98789.69;1694346;84;20983;-66
2022/07/12 02:14:16;;;;;;;1.17;0.93;;;;;;;14.16;72.93;98786.79;1690643;83;20911;-66
2022/07/12 02:16:44;;;;;;;1.47;1.00;;;;;;;14.16;73.03;98784.94;1698435;84;21053;-67
2022/07/12 02:19:11;;;;;;;3.50;2.27;;;;;;;14.18;73.11;98778.06;1690438;83;21241;-66
2022/07/12 02:21:39;;;;;;;2.02;1.50;;;;;;;14.20;73.13;98775.48;1698988;84;20967;-66
2022/07/12 02:24:06;;;;;;;2.80;1.70;;;;;;;14.20;73.11;98772.81;1690884;83;20891;-67
2022/07/12 02:26:34;;;;;;;1.95;1.47;;;;;;;14.19;73.17;98775.67;1694801;84;20964;-68
2022/07/12 02:29:02;;;;;;;1.47;1.37;;;;;;;14.16;73.35;98772.08;1694248;84;21030;-68
2022/07/12 02:31:29;;;;;;;2.35;1.15;;;;;;;14.14;73.50;98764.28;1694054;84;21493;-67
2022/07/12 02:33:57;;;;;;;1.77;1.10;;;;;;;14.16;73.65;98770.23;1694234;83;21018;-66
2022/07/12 02:36:24;;;;;;;1.60;1.00;;;;;;;14.20;73.67;98771.98;1696661;84;20943;-67
2022/07/12 02:38:51;;;;;;;1.30;1.20;;;;;;;14.23;73.73;98771.56;1691194;84;20954;-67
2022/07/12 02:41:17;;;;;;;1.25;1.15;;;;;;;14.22;73.69;98769.40;1697270;84;20995;-68
2022/07/12 02:43:44;;;;;;;1.70;1.27;;;;;;;14.26;73.77;98775.67;1689675;84;21162;-67
2022/07/12 02:46:12;;;;;;;2.00;1.17;;;;;;;14.27;73.79;98771.44;1697892;84;20995;-66
2022/07/12 02:48:38;;;;;;;3.50;1.00;;;;;;;14.28;73.75;98769.08;1693054;84;20954;-67
2022/07/12 02:51:06;;;;;;;1.35;1.20;;;;;;;14.29;73.83;98773.37;1689627;84;21105;-66
2022/07/12 02:53:34;;;;;;;1.45;1.20;;;;;;;14.29;73.94;98767.23;1681196;84;21441;-66
2022/07/12 02:56:00;;;;;;;0.75;0.75;;;;;;;14.30;73.98;98769.68;1686905;84;21114;-65
2022/07/12 02:58:27;;;;;;;1.77;0.95;;;;;;;14.32;73.98;98769.49;1695659;84;20979;-67
2022/07/12 03:00:54;;;;;;;2.67;1.22;;;;;;;14.34;74.00;98776.81;1691499;84;20922;-67
2022/07/12 03:03:20;;;;;;;3.05;1.37;;;;;;;14.33;73.98;98767.13;1692699;84;20991;-66
2022/07/12 03:05:47;;;;;;;1.40;1.10;;;;;;;14.31;74.11;98767.36;1691081;84;20961;-67
2022/07/12 03:08:13;;;;;;;4.70;1.30;;;;;;;14.31;74.08;98762.00;1690318;84;21248;-67
2022/07/12 03:10:39;;;;;;;3.42;1.25;;;;;;;14.33;74.07;98764.45;1693761;84;21064;-66
2022/07/12 03:13:07;;;;;;;1.17;1.02;;;;;;;14.35;74.15;98764.55;1695712;84;21527;-66
2022/07/12 03:15:34;;;;;;;1.17;0.88;;;;;;;14.39;74.10;98762.28;1695460;84;20994;-66
2022/07/12 03:18:01;;;;;;;2.00;1.32;;;;;;;14.44;74.04;98757.95;1696571;84;20900;-66
2022/07/12 03:20:30;;;;;;;2.02;1.25;;;;;;;14.46;73.94;98757.20;1699135;84;21034;-66
2022/07/12 03:22:56;;;;;;;1.90;1.37;;;;;;;14.47;73.87;98757.49;1694661;84;21026;-66
2022/07/12 03:25:23;;;;;;;1.95;1.10;;;;;;;14.48;73.86;98765.84;1693461;84;21046;-66
2022/07/12 03:27:50;;;;;;;3.08;0.90;;;;;;;14.50;73.84;98757.08;1686705;83;21021;-66
2022/07/12 03:30:16;;;;;;;2.02;0.82;;;;;;;14.54;73.81;98756.14;1696840;84;21030;-66
2022/07/12 03:32:43;;;;;;;1.80;0.98;;;;;;;14.58;73.75;98757.34;1694850;84;21834;-66
2022/07/12 03:35:11;;;;;;;1.20;1.05;;;;;;;14.63;73.63;98752.17;1697673;84;20936;-66
2022/07/12 03:37:50;;;;;;;1.98;1.10;;;;;;;14.68;73.54;98754.52;1687421;83;20959;-66
2022/07/12 03:40:18;;;;;;;1.27;1.15;;;;;;;14.72;73.31;98749.05;1698687;84;20987;-66
2022/07/12 03:42:44;;;;;;;1.12;0.90;;;;;;;14.76;73.14;98749.42;1701928;84;21014;-66
2022/07/12 03:45:12;;;;;;;2.72;1.32;;;;;;;14.80;72.99;98747.98;1700693;84;21165;-67
2022/07/12 03:47:40;;;;;;;2.47;1.60;;;;;;;14.86;73.02;98754.34;1697374;84;20971;-67
2022/07/12 03:50:11;;;;;;;1.80;1.07;;;;;;;14.96;72.86;98756.02;1699883;84;21449;-67
2022/07/12 03:52:38;;;;;;;1.87;1.20;;;;;;;14.97;72.55;98757.64;1694629;84;21008;-66
2022/07/12 03:55:06;;;;;;;1.42;1.27;;;;;;;15.02;72.53;98757.31;1700718;84;20948;-66
2022/07/12 03:57:33;;;;;;;2.40;1.00;;;;;;;15.12;72.46;98759.53;1699706;84;21897;-67
2022/07/12 03:59:59;;;;;;;1.98;1.00;;;;;;;15.24;72.36;98759.13;1699970;84;21505;-67
2022/07/12 04:02:26;;;;;;;7.25;1.17;;;;;;;15.34;72.17;98754.92;1694720;84;20975;-67
2022/07/12 04:04:52;;;;;;;2.08;1.30;;;;;;;15.44;71.92;98763.30;1701827;84;21103;-67
2022/07/12 04:07:19;;;;;;;5.55;1.67;;;;;;;15.51;71.23;98769.99;1694973;84;20993;-67
2022/07/12 04:09:45;;;;;;;3.05;1.47;;;;;;;15.52;71.00;98768.93;1697366;84;21318;-67
2022/07/12 04:12:12;;;;;;;2.20;1.20;;;;;;;15.54;70.83;98768.19;1701126;84;20927;-67
2022/07/12 04:14:38;;;;;;;2.20;1.32;;;;;;;15.52;70.64;98760.89;1703831;84;21003;-67
2022/07/12 04:17:06;;;;;;;2.65;1.42;;;;;;;15.53;70.66;98761.72;1694525;84;21027;-67
2022/07/12 04:19:33;;;;;;;2.25;1.70;;;;;;;15.57;70.47;98768.27;1702097;84;20931;-67
2022/07/12 04:22:00;;;;;;;3.58;1.55;;;;;;;15.56;70.44;98762.62;1695946;84;21212;-67
2022/07/12 04:24:27;;;;;;;2.12;1.40;;;;;;;15.58;70.46;98764.05;1697770;84;21021;-67
2022/07/12 04:26:53;;;;;;;4.45;1.25;;;;;;;15.61;70.51;98764.95;1697438;84;21059;-67
2022/07/12 04:29:20;;;;;;;1.62;1.20;;;;;;;15.64;70.50;98763.17;1699433;84;20994;-67
2022/07/12 04:31:47;;;;;;;1.45;1.35;;;;;;;15.69;70.45;98763.34;1697410;83;21015;-67
2022/07/12 04:34:16;;;;;;;3.27;1.60;;;;;;;15.74;70.24;98760.81;1694682;83;21253;-67
2022/07/12 04:36:41;;;;;;;1.92;1.30;;;;;;;15.77;70.04;98753.64;1699358;83;20864;-67
2022/07/12 04:39:08;;;;;;;4.70;1.60;;;;;;;15.81;70.04;98759.39;1702905;84;20951;-67
2022/07/12 04:41:37;;;;;;;1.77;1.40;;;;;;;15.85;69.85;98764.09;1704259;83;21018;-66
2022/07/12 04:44:06;;;;;;;1.87;1.37;;;;;;;15.88;69.83;98760.97;1705076;84;20935;-67
2022/07/12 04:46:33;;;;;;;3.72;1.32;;;;;;;15.93;69.82;98759.78;1696206;84;21268;-67
2022/07/12 04:49:00;;;;;;;2.55;1.70;;;;;;;15.98;69.73;98754.57;1701405;84;21071;-67
2022/07/12 04:51:27;;;;;;;2.17;1.52;;;;;;;16.03;69.51;98757.41;1698680;84;21009;-67
2022/07/12 04:53:55;;;;;;;2.12;1.55;;;;;;;16.05;69.35;98755.86;1692671;84;21117;-67
2022/07/12 04:56:22;;;;;;;2.08;1.27;;;;;;;16.04;69.13;98755.03;1694629;84;21097;-66
2022/07/12 04:58:48;;;;;;;3.25;1.85;;;;;;;16.02;69.08;98762.49;1695195;84;21269;-66
2022/07/12 05:01:16;;;;;;;2.85;1.47;;;;;;;16.05;69.13;98751.32;1693735;84;21091;-66
2022/07/12 05:03:43;;;;;;;1.90;1.22;;;;;;;16.08;69.16;98751.91;1699456;84;20911;-65
2022/07/12 05:06:10;;;;;;;2.42;1.35;;;;;;;16.10;69.12;98750.64;1699000;84;20964;-66
2022/07/12 05:08:36;;;;;;;3.37;1.50;;;;;;;16.15;69.11;98745.94;1692568;84;21030;-69
2022/07/12 05:11:03;;;;;;;1.75;1.52;;;;;;;16.23;69.02;98747.81;1698216;84;21108;-66
2022/07/12 05:13:30;;;;;;;1.55;1.40;;;;;;;16.34;69.05;98751.10;1700206;84;21014;-65
2022/07/12 05:15:56;;;;;;;1.52;1.42;;;;;;;16.45;68.57;98740.92;1693411;84;21088;-66
2022/07/12 05:18:22;;;;;;;1.72;1.62;;;;;;;16.53;68.25;98748.70;1697395;83;21006;-65
2022/07/12 05:20:49;;;;;;;5.15;1.60;;;;;;;16.62;68.08;98747.89;1692944;83;21514;-65
2022/07/12 05:23:16;;;;;;;3.00;1.40;;;;;;;16.69;68.01;98747.27;1693047;84;22155;-67
2022/07/12 05:25:43;;;;;;;1.42;1.32;;;;;;;16.79;67.79;98748.09;1689813;84;20905;-67
2022/07/12 05:28:09;;;;;;;2.67;1.20;;;;;;;16.86;67.53;98743.44;1694190;84;20931;-65
2022/07/12 05:30:35;;;;;;;2.42;1.30;;;;;;;16.96;67.34;98746.39;1695253;84;20881;-69
2022/07/12 05:33:02;;;;;;;1.90;1.55;;;;;;;17.06;67.21;98743.45;1693101;84;20909;-69
2022/07/12 05:35:29;;;;;;;4.17;1.42;;;;;;;17.16;67.00;98742.36;1697822;84;21545;-67
2022/07/12 05:37:56;;;;;;;3.80;1.30;;;;;;;17.25;66.51;98734.27;1693529;84;21085;-70
2022/07/12 05:40:22;;;;;;;4.58;1.62;;;;;;;17.34;66.13;98733.94;1700666;84;20999;-70
2022/07/12 05:42:49;;;;;;;2.17;0.93;;;;;;;17.31;65.99;98733.05;1690324;84;21527;-69
2022/07/12 05:45:15;;;;;;;1.50;1.30;;;;;;;17.35;65.93;98731.01;1695474;84;21428;-68
2022/07/12 05:47:42;;;;;;;1.98;0.90;;;;;;;17.44;65.83;98732.30;1669137;84;21938;-68
2022/07/12 05:50:09;;;;;;;3.37;1.40;;;;;;;17.53;65.74;98726.09;1693937;84;20938;-68
2022/07/12 05:55:22;;;;;;;4.20;1.70;;;;;;;17.91;65.09;98722.95;1685501;84;21029;-66
2022/07/12 05:57:50;;;;;;;3.90;1.10;;;;;;;18.13;64.12;98721.27;1693704;84;20954;-69
2022/07/12 06:00:17;;;;;;;3.77;1.25;;;;;;;18.20;63.52;98728.67;1695514;84;21265;-68
2022/07/12 06:02:44;;;;;;;3.58;1.50;;;;;;;18.17;63.54;98726.48;1686241;84;20993;-69
2022/07/12 06:05:10;;;;;;;2.70;1.10;;;;;;;18.23;63.42;98723.64;1692552;84;21183;-69
2022/07/12 06:07:37;;;;;;;3.60;1.12;;;;;;;18.33;63.06;98721.16;1693612;84;21053;-68
2022/07/12 06:10:06;;;;;;;3.08;1.20;;;;;;;18.38;62.83;98726.65;1694839;84;22229;-68
2022/07/12 06:12:34;;;;;;;3.58;1.17;;;;;;;18.45;62.76;98724.66;1695643;84;20910;-67
2022/07/12 06:15:00;;;;;;;3.30;1.25;;;;;;;18.50;62.60;98728.00;1695660;84;21063;-69
2022/07/12 06:17:27;;;;;;;1.25;0.80;;;;;;;18.55;62.48;98729.97;1694731;84;21057;-67
2022/07/12 06:19:53;;;;;;;1.70;1.35;;;;;;;18.54;62.23;98728.36;1695620;84;20922;-67
2022/07/12 06:22:21;;;;;;;1.67;1.17;;;;;;;18.44;62.11;98727.05;1695607;84;20938;-67
2022/07/12 06:24:47;;;;;;;1.80;1.20;;;;;;;18.35;62.17;98729.02;1695481;84;21261;-66
2022/07/12 06:27:14;;;;;;;2.60;1.07;;;;;;;18.32;62.37;98736.22;1695196;84;21409;-68
2022/07/12 06:29:41;;;;;;;1.40;1.02;;;;;;;18.27;62.50;98732.90;1694883;84;21637;-67
2022/07/12 06:32:08;;;;;;;1.35;1.25;;;;;;;18.28;62.84;98733.17;1695593;84;21586;-67
2022/07/12 06:34:37;;;;;;;2.20;1.07;;;;;;;18.28;62.76;98736.39;1695611;84;20989;-67
2022/07/12 06:37:05;;;;;;;2.35;1.00;;;;;;;18.27;62.72;98728.04;1695791;83;21149;-67
2022/07/12 06:39:31;;;;;;;3.70;1.15;;;;;;;18.28;62.67;98732.34;1695621;84;21048;-67
2022/07/12 06:41:58;;;;;;;1.72;0.90;;;;;;;18.24;62.80;98725.30;1695355;84;21077;-68
2022/07/12 06:44:25;;;;;;;3.02;0.95;;;;;;;18.24;62.82;98730.68;1687763;82;21133;-66
2022/07/12 06:46:51;;;;;;;1.02;0.93;;;;;;;18.25;62.82;98734.98;1695267;84;20963;-67
2022/07/12 06:49:18;;;;;;;2.27;1.00;;;;;;;18.32;62.97;98737.56;1695136;84;21262;-67
2022/07/12 06:51:44;;;;;;;3.02;1.20;;;;;;;18.37;62.88;98734.45;1686932;84;21070;-67
2022/07/12 06:54:12;;;;;;;2.08;0.90;;;;;;;18.39;62.89;98728.81;1689637;84;21728;-69
2022/07/12 06:56:38;;;;;;;1.82;0.80;;;;;;;18.45;62.95;98737.30;1688056;84;21009;-68
2022/07/12 06:59:05;;;;;;;2.77;1.10;;;;;;;18.47;62.88;98733.34;1690095;84;21454;-65
2022/07/12 07:01:31;;;;;;;1.40;1.27;;;;;;;18.54;63.11;98740.48;1682511;84;21791;-66
2022/07/12 07:03:59;;;;;;;1.65;1.00;;;;;;;18.66;63.02;98735.86;1686497;84;20974;-64
2022/07/12 07:06:25;;;;;;;2.75;1.00;;;;;;;18.70;62.79;98724.88;1690704;84;20953;-65
2022/07/12 07:08:51;;;;;;;0.95;0.85;;;;;;;18.75;62.65;98737.09;1689906;84;21111;-65
2022/07/12 07:11:18;;;;;;;1.55;0.80;;;;;;;18.79;62.21;98739.09;1693306;84;20974;-65
2022/07/12 07:13:44;;;;;;;1.98;0.78;;;;;;;18.77;62.01;98745.78;1693508;83;21171;-70
2022/07/12 07:16:11;;;;;;;1.85;0.80;;;;;;;18.76;62.24;98744.13;1689583;84;21074;-66
2022/07/12 07:18:37;;;;;;;1.95;1.12;;;;;;;18.82;62.32;98741.28;1690710;83;21048;-66
2022/07/12 07:21:04;;;;;;;1.92;0.80;;;;;;;18.96;62.10;98749.38;1689578;84;21005;-65
2022/07/12 07:23:30;;;;;;;2.45;0.95;;;;;;;19.06;61.86;98738.77;1685710;83;20990;-65
2022/07/12 07:25:58;;;;;;;0.70;0.70;;;;;;;19.13;61.37;98744.55;1689216;84;21167;-65
2022/07/12 07:28:24;;;;;;;4.28;1.00;;;;;;;19.12;61.08;98747.77;1697872;84;20932;-66
2022/07/12 07:30:53;;;;;;;1.47;0.80;;;;;;;19.12;61.00;98749.12;1696867;84;20919;-66
2022/07/12 07:33:21;;;;;;;2.98;0.68;;;;;;;19.11;60.87;98746.13;1698692;84;20995;-65
2022/07/12 07:35:51;;;;;;;3.90;1.17;;;;;;;19.15;60.91;98741.90;1698736;84;21564;-66
2022/07/12 07:38:19;;;;;;;1.27;0.88;;;;;;;19.22;60.73;98743.91;1699704;84;21152;-66
2022/07/12 07:40:45;;;;;;;2.33;0.72;;;;;;;19.35;60.64;98739.55;1694607;84;20959;-65
2022/07/12 07:43:14;;;;;;;3.80;0.80;;;;;;;19.48;60.57;98743.83;1691347;84;21007;-66
2022/07/12 07:45:41;;;;;;;1.12;0.60;;;;;;;19.61;60.01;98738.92;1684286;85;20999;-66
2022/07/12 07:48:08;;;;;;;1.27;0.93;;;;;;;19.68;59.62;98739.56;1684268;84;21042;-66
2022/07/12 07:50:34;;;;;;;4.08;1.02;;;;;;;19.80;59.53;98734.09;1684286;85;21255;-65
2022/07/12 07:53:01;;;;;;;3.55;1.00;;;;;;;19.94;58.95;98732.70;1679640;85;20970;-65
2022/07/12 07:55:27;;;;;;;2.95;0.70;;;;;;;20.06;58.71;98737.97;1684325;85;21124;-66
2022/07/12 07:57:54;;;;;;;1.10;0.78;;;;;;;20.19;57.88;98734.39;1684185;85;21019;-66
2022/07/12 08:00:21;;;;;;;7.67;1.02;;;;;;;20.21;57.75;98739.52;1684323;85;21035;-66
2022/07/12 08:02:48;;;;;;;4.12;0.88;;;;;;;20.27;57.69;98736.69;1684249;85;21092;-65
2022/07/12 08:05:14;;;;;;;1.65;0.70;;;;;;;20.30;57.63;98731.32;1684145;84;20907;-66
2022/07/12 08:07:42;;;;;;;2.67;0.60;;;;;;;20.38;57.11;98728.19;1684268;84;20927;-68
2022/07/12 08:10:09;;;;;;;1.90;0.90;;;;;;;20.46;56.66;98730.45;1684227;85;20998;-66
2022/07/12 08:12:35;;;;;;;4.62;0.90;;;;;;;20.51;56.65;98722.41;1684304;84;20911;-66
2022/07/12 08:15:02;;;;;;;3.30;0.95;;;;;;;20.61;56.50;98729.80;1684188;85;21150;-66
2022/07/12 08:17:29;;;;;;;4.50;0.88;;;;;;;20.72;56.26;98731.03;1684346;84;21536;-66
2022/07/12 08:19:56;;;;;;;1.85;0.62;;;;;;;20.78;55.77;98729.17;1684364;85;21477;-66
2022/07/12 08:22:22;;;;;;;2.80;0.50;;;;;;;20.78;55.04;98715.13;1681349;84;21494;-65
2022/07/12 08:24:49;;;;;;;3.05;0.60;;;;;;;20.71;54.77;98715.88;1684492;84;21520;-65
2022/07/12 08:27:16;;;;;;;1.47;0.60;;;;;;;20.65;54.65;98717.44;1679785;85;21276;-66
2022/07/12 08:29:43;;;;;;;5.28;0.68;;;;;;;20.66;54.83;98727.98;1675190;85;20951;-66
2022/07/12 08:32:09;;;;;;;1.17;0.70;;;;;;;20.64;54.71;98720.66;1684505;84;20967;-66
2022/07/12 08:34:36;;;;;;;7.75;0.90;;;;;;;20.64;54.64;98713.09;1684258;85;20965;-67
2022/07/12 08:37:04;;;;;;;1.27;0.60;;;;;;;20.59;55.02;98724.66;1684445;85;20978;-66
2022/07/12 08:39:30;;;;;;;4.85;1.05;;;;;;;20.59;54.72;98721.95;1684115;85;21279;-66
2022/07/12 08:41:57;;;;;;;2.35;0.95;;;;;;;20.69;54.92;98716.66;1684145;84;21058;-66
2022/07/12 08:44:24;;;;;;;2.98;1.10;;;;;;;20.87;54.39;98720.91;1691925;84;20927;-66
2022/07/12 08:46:52;;;;;;;5.40;1.12;;;;;;;21.08;53.87;98718.72;1696797;84;20960;-66
2022/07/12 08:49:18;;;;;;;3.90;0.80;;;;;;;21.44;52.72;98717.13;1696017;84;20955;-67
2022/07/12 08:51:45;;;;;;;2.87;0.88;;;;;;;21.85;51.66;98725.83;1696165;84;21119;-68
2022/07/12 08:54:12;;;;;;;1.57;0.95;;;;;;;22.16;50.94;98726.06;1694100;83;20912;-66
2022/07/12 08:56:41;;;;;;;4.53;0.70;;;;;;;22.30;49.97;98717.17;1698329;84;20984;-66
2022/07/12 08:59:20;;;;;;;1.20;0.60;;;;;;;22.42;49.07;98718.33;1699198;84;21071;-68
2022/07/12 09:01:52;;;;;;;3.55;0.60;;;;;;;22.62;48.36;98721.11;1650432;86;21278;-66
2022/07/12 09:04:24;;;;;;;5.67;0.60;;;;;;;23.08;47.48;98717.45;1698454;84;21134;-68
2022/07/12 09:06:51;;;;;;;4.37;0.60;;;;;;;23.88;45.97;98718.57;1697716;84;20987;-67
2022/07/12 09:09:32;;;;;;;2.80;0.70;;;;;;;24.72;45.05;98719.10;1699253;84;20944;-68
2022/07/12 09:12:00;;;;;;;3.37;0.85;;;;;;;25.84;42.57;98703.66;1697530;84;21852;-68
2022/07/12 09:14:28;;;;;;;2.92;0.75;;;;;;;26.24;40.89;98705.95;1694121;84;36084;-67
2022/07/12 09:17:09;;;;;;;2.42;0.70;;;;;;;26.08;40.09;98703.92;1695316;84;21148;-68
2022/07/12 09:19:33;;;;;;;5.45;0.60;;;;;;;25.82;40.19;98704.46;1695615;84;20927;-67
2022/07/12 09:22:00;;;;;;;4.53;0.60;;;;;;;25.62;39.91;98705.48;1693927;84;20942;-66
2022/07/12 09:24:27;;;;;;;1.00;0.70;;;;;;;25.49;40.22;98717.85;1693792;84;21557;-67
2022/07/12 09:27:03;;;;;;;3.27;0.70;;;;;;;25.35;40.38;98704.58;1696659;84;20957;-67
2022/07/12 09:29:34;;;;;;;2.22;0.80;;;;;;;25.07;40.22;98702.62;1696441;84;21775;-67
2022/07/12 09:37:42;;;;;;;4.37;1.10;;;;;;;24.53;41.54;98705.35;1687942;83;20950;-67
2022/07/12 09:40:10;;;;;;;1.42;0.60;;;;;;;24.84;41.99;98701.95;1694924;83;21016;-67
2022/07/12 09:42:37;;;;;;;3.08;0.60;;;;;;;24.87;41.10;98696.74;1694510;84;21249;-66
2022/07/12 09:45:07;;;;;;;3.45;0.62;;;;;;;24.71;41.02;98703.90;1696021;84;20944;-67
2022/07/12 09:47:33;;;;;;;1.90;0.65;;;;;;;24.43;41.43;98700.75;1696160;84;20979;-66
2022/07/12 09:50:00;;;;;;;3.22;0.75;;;;;;;24.15;42.14;98696.52;1697030;84;21063;-65
2022/07/12 09:52:27;;;;;;;6.37;0.82;;;;;;;23.88;42.38;98698.20;1692803;84;21010;-66
2022/07/12 09:54:55;;;;;;;2.42;0.70;;;;;;;23.59;42.46;98696.62;1695344;84;21205;-66
2022/07/12 09:57:28;;;;;;;3.95;0.80;;;;;;;23.40;42.77;98694.70;1699247;84;21016;-67
2022/07/12 09:59:59;;;;;;;2.60;0.95;;;;;;;23.28;43.17;98697.11;1697569;84;21035;-66
2022/07/12 10:02:27;;;;;;;7.35;1.57;;;;;;;23.47;43.52;98694.70;1679829;84;20975;-66
2022/07/12 10:04:54;;;;;;;3.80;1.20;;;;;;;23.72;43.44;98688.45;1698169;84;20984;-66
2022/07/12 10:07:21;;;;;;;2.42;1.10;;;;;;;23.94;42.83;98681.60;1698790;84;21266;-67
2022/07/12 10:09:51;;;;;;;6.10;0.82;;;;;;;24.17;42.12;98686.99;1699467;84;20987;-65
2022/07/12 10:12:19;;;;;;;0.72;0.50;;;;;;;24.35;41.05;98678.22;1687871;84;21109;-66
2022/07/12 10:14:51;;;;;;;3.95;1.30;;;;;;;24.39;40.98;98681.20;1691509;84;21026;-67
2022/07/12 10:17:23;;;;;;;5.35;1.22;;;;;;;24.37;41.07;98684.76;1691080;84;20998;-66
2022/07/12 10:19:50;;;;;;;4.28;1.00;;;;;;;24.27;40.61;98694.31;1693443;84;21240;-66
2022/07/12 10:22:20;;;;;;;2.00;0.80;;;;;;;24.11;40.98;98688.66;1646833;84;20915;-66
2022/07/12 10:24:49;;;;;;;2.83;0.90;;;;;;;23.96;41.50;98689.47;1697947;84;20975;-66
2022/07/12 10:27:21;;;;;;;3.12;1.12;;;;;;;23.76;41.73;98688.16;1697153;84;20908;-66
2022/07/12 10:29:49;;;;;;;1.00;0.70;;;;;;;23.57;42.13;98696.63;1699051;84;21046;-67
2022/07/12 10:32:26;;;;;;;5.05;1.45;;;;;;;23.46;42.29;98690.92;1698995;84;21324;-66
2022/07/12 10:35:08;;;;;;;3.02;0.95;;;;;;;23.30;42.34;98698.22;1694189;84;20898;-66
2022/07/12 10:37:35;;;;;;;3.90;1.40;;;;;;;23.23;43.04;98688.18;1692510;84;21160;-65
2022/07/12 10:40:17;;;;;;;1.77;1.40;;;;;;;23.25;43.12;98693.61;1695530;84;20939;-65
2022/07/12 10:43:05;;;;;;;5.97;1.02;;;;;;;23.26;42.81;98697.93;1693335;84;20939;-67
2022/07/12 10:45:39;;;;;;;3.10;0.90;;;;;;;23.19;43.14;98693.32;1671938;85;21191;-65
2022/07/12 10:48:18;;;;;;;3.70;1.20;;;;;;;23.10;43.56;98690.86;1680086;85;21002;-67
2022/07/12 10:50:55;;;;;;;8.98;1.47;;;;;;;22.96;43.69;98684.35;1684384;84;21041;-68
2022/07/12 10:53:26;;;;;;;2.98;1.20;;;;;;;22.68;44.86;98699.19;1680507;85;21017;-65
2022/07/12 10:56:15;;;;;;;6.62;1.37;;;;;;;22.52;46.70;98702.10;1684332;85;20911;-67
2022/07/12 10:59:00;;;;;;;1.30;1.20;;;;;;;22.42;48.69;98697.44;1679167;85;21158;-66
2022/07/12 11:01:31;;;;;;;2.65;1.17;;;;;;;22.24;48.83;98680.86;1684198;85;20872;-66
2022/07/12 11:04:08;;;;;;;2.02;1.75;;;;;;;22.07;48.51;98676.45;1684369;84;21010;-66
2022/07/12 11:06:39;;;;;;;4.53;1.22;;;;;;;21.97;49.30;98692.64;1677245;85;21778;-66
2022/07/12 11:09:10;;;;;;;2.35;1.32;;;;;;;21.95;50.08;98686.66;1675912;85;21314;-66
2022/07/12 11:11:44;;;;;;;4.90;1.65;;;;;;;21.90;50.29;98692.05;1684323;85;21139;-66
2022/07/12 11:14:12;;;;;;;2.58;1.47;;;;;;;21.87;50.50;98695.83;1684403;84;20998;-66
2022/07/12 11:16:45;;;;;;;1.72;1.30;;;;;;;22.03;50.51;98684.80;1684471;84;21610;-66
2022/07/12 11:19:11;;;;;;;4.03;1.47;;;;;;;22.14;49.18;98682.43;1684547;85;20935;-66
2022/07/12 11:21:38;;;;;;;2.75;1.25;;;;;;;22.32;48.68;98686.56;1684167;84;21005;-66
2022/07/12 11:24:19;;;;;;;2.70;1.35;;;;;;;22.44;48.25;98686.35;1682097;85;22585;-66
2022/07/12 11:26:47;;;;;;;2.10;1.12;;;;;;;22.49;47.94;98678.23;1684437;83;20958;-65
2022/07/12 11:29:13;;;;;;;2.05;0.90;;;;;;;22.61;47.61;98681.52;1684291;84;20915;-66
2022/07/12 11:31:40;;;;;;;3.20;1.37;;;;;;;22.72;46.71;98677.79;1684353;84;20938;-66
2022/07/12 11:34:06;;;;;;;3.25;1.17;;;;;;;22.83;46.37;98683.52;1684279;85;21069;-66
2022/07/12 11:36:33;;;;;;;1.10;1.00;;;;;;;22.78;46.29;98702.48;1684425;84;21228;-66
2022/07/12 11:39:05;;;;;;;4.20;1.00;;;;;;;22.74;46.63;98690.53;1684276;84;21027;-66
2022/07/12 11:41:28;;;;;;;11.95;1.40;;;;;;;22.73;46.54;98689.70;1683980;85;20986;-66
2022/07/12 11:43:55;;;;;;;1.42;1.15;;;;;;;22.70;46.78;98689.45;1684195;84;20927;-66
2022/07/12 11:46:21;;;;;;;3.42;1.32;;;;;;;22.69;47.25;98683.20;1684387;85;21071;-66